createdAt,value
2022-10-11T00:02:05.488Z,101084.13
2022-10-11T00:04:34.947Z,101085.75
2022-10-11T00:07:04.452Z,101091.91
2022-10-11T00:09:33.941Z,101086.19
2022-10-11T00:12:06.198Z,101093.59
2022-10-11T00:14:36.041Z,101081.31
2022-10-11T00:17:07.772Z,101085.41
2022-10-11T00:19:37.292Z,101086.25
2022-10-11T00:22:06.881Z,101090.34
2022-10-11T00:24:36.400Z,101093.38
2022-10-11T00:27:08.516Z,101105.72
2022-10-11T00:29:38.027Z,101101.19
2022-10-11T00:32:07.604Z,101101.19
2022-10-11T00:34:37.095Z,101098.13
2022-10-11T00:37:06.598Z,101100.97
2022-10-11T00:39:36.056Z,101106.91
2022-10-11T00:42:09.493Z,101106.53
2022-10-11T00:44:38.957Z,101121.66
2022-10-11T00:47:10.392Z,101116.34
2022-10-11T00:49:41.056Z,101123.47
2022-10-11T00:52:14.559Z,101119.41
2022-10-11T00:54:44.961Z,101122.47
2022-10-11T00:57:19.104Z,101129.03
2022-10-11T00:59:50.923Z,101131.25
2022-10-11T01:02:20.720Z,101129.63
2022-10-11T01:05:05.658Z,101135.34
2022-10-11T01:07:39.678Z,101136.28
2022-10-11T01:10:09.684Z,101136.91
2022-10-11T01:12:42.940Z,101127.88
2022-10-11T01:15:16.822Z,101132.59
2022-10-11T01:17:49.308Z,101126.25
2022-10-11T01:20:31.998Z,101134.22
2022-10-11T01:23:27.720Z,101135.44
2022-10-11T01:26:11.302Z,101134.84
2022-10-11T01:28:51.014Z,101140.94
2022-10-11T01:31:25.766Z,101131.53
2022-10-11T01:33:56.426Z,101139.53
2022-10-11T01:36:30.606Z,101138.72
2022-10-11T01:39:01.476Z,101137.69
2022-10-11T01:41:32.500Z,101137.28
2022-10-11T01:44:02.919Z,101140.31
2022-10-11T01:46:35.024Z,101141.38
2022-10-11T01:49:04.828Z,101147.66
2022-10-11T01:51:35.833Z,101154.84
2022-10-11T01:54:16.901Z,101153.03
2022-10-11T01:56:56.316Z,101158.94
2022-10-11T01:59:33.837Z,101161.38
2022-10-11T02:02:09.153Z,101156.47
2022-10-11T02:04:41.320Z,101161.00
2022-10-11T02:07:13.733Z,101164.88
2022-10-11T02:09:45.438Z,101159.34
2022-10-11T02:12:18.468Z,101172.00
2022-10-11T02:14:49.459Z,101176.44
2022-10-11T02:17:22.587Z,101183.31
2022-10-11T02:19:53.296Z,101180.50
2022-10-11T02:22:24.691Z,101182.31
2022-10-11T02:24:55.592Z,101180.09
2022-10-11T02:27:26.082Z,101189.31
2022-10-11T02:29:55.747Z,101180.34
2022-10-11T02:32:28.206Z,101190.97
2022-10-11T02:34:58.695Z,101195.09
2022-10-11T02:37:30.592Z,101190.00
2022-10-11T02:40:04.111Z,101189.63
2022-10-11T02:42:36.547Z,101191.09
2022-10-11T02:45:07.924Z,101195.75
2022-10-11T02:47:40.060Z,101204.09
2022-10-11T02:50:10.754Z,101207.34
2022-10-11T02:52:40.227Z,101208.81
2022-10-11T02:55:10.916Z,101213.94
2022-10-11T02:57:40.423Z,101214.56
2022-10-11T03:00:11.098Z,101220.25
2022-10-11T03:02:43.291Z,101224.75
2022-10-11T03:05:12.794Z,101224.50
2022-10-11T03:07:42.231Z,101228.97
2022-10-11T03:10:12.419Z,101233.47
2022-10-11T03:12:41.951Z,101230.16
2022-10-11T03:15:12.405Z,101233.53
2022-10-11T03:17:44.410Z,101238.25
2022-10-11T03:20:14.227Z,101231.47
2022-10-11T03:22:43.735Z,101239.00
2022-10-11T03:25:13.157Z,101243.91
2022-10-11T03:27:42.619Z,101244.44
2022-10-11T03:30:17.852Z,101246.47
2022-10-11T03:32:50.255Z,101239.72
2022-10-11T03:35:20.026Z,101247.03
2022-10-11T03:37:49.589Z,101250.09
2022-10-11T03:40:19.015Z,101251.63
2022-10-11T03:42:48.620Z,101261.19
2022-10-11T03:45:18.103Z,101261.75
2022-10-11T03:47:50.125Z,101267.63
2022-10-11T03:50:19.713Z,101266.56
2022-10-11T03:52:49.166Z,101265.47
2022-10-11T03:55:18.871Z,101266.22
2022-10-11T03:57:48.308Z,101263.66
2022-10-11T04:00:18.106Z,101272.38
2022-10-11T04:02:50.168Z,101275.44
2022-10-11T04:05:19.841Z,101274.16
2022-10-11T04:07:49.278Z,101279.00
2022-10-11T04:10:18.904Z,101277.72
2022-10-11T04:12:48.756Z,101281.75
2022-10-11T04:15:18.258Z,101284.59
2022-10-11T04:17:50.283Z,101287.22
2022-10-11T04:20:19.880Z,101293.94
2022-10-11T04:22:49.331Z,101296.75
2022-10-11T04:25:18.889Z,101294.13
2022-10-11T04:27:48.622Z,101295.94
2022-10-11T04:30:18.490Z,101294.66
2022-10-11T04:32:50.745Z,101299.88
2022-10-11T04:35:20.321Z,101304.34
2022-10-11T04:37:49.813Z,101305.72
2022-10-11T04:40:19.625Z,101295.84
2022-10-11T04:42:50.596Z,101306.34
2022-10-11T04:45:20.054Z,101308.72
2022-10-11T04:47:52.108Z,101317.13
2022-10-11T04:50:21.647Z,101322.94
2022-10-11T04:52:51.171Z,101331.25
2022-10-11T04:55:20.877Z,101333.25
2022-10-11T04:57:50.379Z,101341.56
2022-10-11T05:00:20.291Z,101341.09
2022-10-11T05:02:53.020Z,101345.81
2022-10-11T05:05:22.461Z,101342.72
2022-10-11T05:07:51.908Z,101339.06
2022-10-11T05:10:21.415Z,101349.13
2022-10-11T05:12:51.020Z,101348.13
2022-10-11T05:15:20.728Z,101346.81
2022-10-11T05:17:53.182Z,101354.44
2022-10-11T05:20:22.658Z,101355.72
2022-10-11T05:22:52.130Z,101354.88
2022-10-11T05:25:21.582Z,101353.75
2022-10-11T05:27:51.020Z,101351.13
2022-10-11T05:30:20.554Z,101352.97
2022-10-11T05:32:52.577Z,101350.59
2022-10-11T05:35:22.423Z,101354.50
2022-10-11T05:37:51.850Z,101351.94
2022-10-11T05:40:21.337Z,101353.75
2022-10-11T05:42:50.891Z,101348.59
2022-10-11T05:45:20.532Z,101344.94
2022-10-11T05:47:52.700Z,101357.38
2022-10-11T05:50:24.482Z,101351.94
2022-10-11T05:52:54.156Z,101357.81
2022-10-11T05:55:23.588Z,101354.50
2022-10-11T05:57:55.460Z,101363.41
2022-10-11T06:00:25.062Z,101355.63
2022-10-11T06:02:57.095Z,101354.16
2022-10-11T06:05:26.600Z,101362.94
2022-10-11T06:07:58.163Z,101365.41
2022-10-11T06:10:27.669Z,101373.72
2022-10-11T06:12:57.116Z,101374.72
2022-10-11T06:15:26.583Z,101378.19
2022-10-11T06:17:59.237Z,101380.66
2022-10-11T06:20:28.799Z,101373.63
2022-10-11T06:22:58.861Z,101379.19
2022-10-11T06:25:28.374Z,101378.41
2022-10-11T06:27:57.805Z,101379.13
2022-10-11T06:30:27.320Z,101383.31
2022-10-11T06:33:03.880Z,101384.09
2022-10-11T06:35:34.371Z,101385.06
2022-10-11T06:38:03.784Z,101400.16
2022-10-11T06:40:33.160Z,101397.06
2022-10-11T06:43:02.575Z,101408.94
2022-10-11T06:45:32.028Z,101416.47
2022-10-11T06:48:05.739Z,101415.81
2022-10-11T06:50:58.471Z,101426.78
2022-10-11T06:53:24.857Z,101431.72
2022-10-11T06:55:54.282Z,101429.44
2022-10-11T06:58:23.746Z,101432.53
2022-10-11T07:00:53.252Z,101438.38
2022-10-11T07:03:25.337Z,101435.53
2022-10-11T07:05:57.885Z,101440.97
2022-10-11T07:08:29.581Z,101438.50
2022-10-11T07:11:02.568Z,101447.31
2022-10-11T07:13:32.006Z,101447.56
2022-10-11T07:16:03.601Z,101449.19
2022-10-11T07:18:36.045Z,101449.94
2022-10-11T07:21:05.785Z,101460.13
2022-10-11T07:23:35.260Z,101468.34
2022-10-11T07:26:05.199Z,101464.53
2022-10-11T07:28:35.057Z,101463.94
2022-10-11T07:31:07.504Z,101457.38
2022-10-11T07:33:39.600Z,101468.56
2022-10-11T07:36:09.993Z,101463.13
2022-10-11T07:38:41.740Z,101467.06
2022-10-11T07:41:11.407Z,101469.94
2022-10-11T07:43:40.971Z,101463.25
2022-10-11T07:46:10.868Z,101467.81
2022-10-11T07:48:43.096Z,101466.00
2022-10-11T07:51:13.610Z,101473.88
2022-10-11T07:53:44.347Z,101469.56
2022-10-11T07:56:15.143Z,101467.56
2022-10-11T07:58:44.777Z,101456.91
2022-10-11T08:01:14.726Z,101466.53
2022-10-11T08:03:46.882Z,101461.19
2022-10-11T08:06:17.219Z,101468.16
2022-10-11T08:08:46.875Z,101468.16
2022-10-11T08:11:22.692Z,101469.78
2022-10-11T08:13:52.206Z,101473.25
2022-10-11T08:16:21.908Z,101466.00
2022-10-11T08:18:54.461Z,101472.09
2022-10-11T08:21:23.903Z,101472.81
2022-10-11T08:23:53.329Z,101470.25
2022-10-11T08:26:22.883Z,101481.06
2022-10-11T08:28:52.398Z,101480.59
2022-10-11T08:31:22.405Z,101477.47
2022-10-11T08:33:54.461Z,101473.88
2022-10-11T08:36:23.930Z,101476.31
2022-10-11T08:38:53.463Z,101482.44
2022-10-11T08:41:29.027Z,101479.41
2022-10-11T08:44:08.725Z,101482.47
2022-10-11T08:46:38.862Z,101485.13
2022-10-11T08:49:11.048Z,101479.41
2022-10-11T08:51:42.768Z,101482.94
2022-10-11T08:54:15.970Z,101482.63
2022-10-11T08:56:45.413Z,101490.75
2022-10-11T08:59:23.267Z,101484.09
2022-10-11T09:01:55.335Z,101485.44
2022-10-11T09:04:27.454Z,101484.63
2022-10-11T09:07:04.706Z,101488.28
2022-10-11T09:09:53.236Z,101488.25
2022-10-11T09:12:31.826Z,101481.69
2022-10-11T09:15:21.520Z,101492.97
2022-10-11T09:18:21.976Z,101493.84
2022-10-11T09:21:08.376Z,101474.81
2022-10-11T09:24:02.137Z,101485.41
2022-10-11T09:26:33.592Z,101477.41
2022-10-11T09:29:05.899Z,101483.44
2022-10-11T09:31:35.470Z,101479.53
2022-10-11T09:34:09.629Z,101487.09
2022-10-11T09:36:43.752Z,101477.00
2022-10-11T09:39:19.349Z,101478.78
2022-10-11T09:41:51.864Z,101474.78
2022-10-11T09:44:24.425Z,101483.16
2022-10-11T09:46:54.019Z,101474.75
2022-10-11T09:49:25.742Z,101472.50
2022-10-11T09:51:59.600Z,101470.56
2022-10-11T09:54:40.306Z,101471.72
2022-10-11T09:57:11.369Z,101471.34
2022-10-11T09:59:40.596Z,101460.91
2022-10-11T10:02:24.106Z,101470.34
2022-10-11T10:05:02.026Z,101471.09
2022-10-11T10:07:34.772Z,101469.78
2022-10-11T10:10:27.456Z,101468.81
2022-10-11T10:12:57.062Z,101467.22
2022-10-11T10:15:26.559Z,101460.09
2022-10-11T10:17:56.089Z,101461.09
2022-10-11T10:20:27.521Z,101463.91
2022-10-11T10:22:59.543Z,101453.88
2022-10-11T10:25:35.992Z,101460.97
2022-10-11T10:28:20.305Z,101464.41
2022-10-11T10:30:54.588Z,101462.53
2022-10-11T10:33:25.067Z,101456.94
2022-10-11T10:35:56.641Z,101461.34
2022-10-11T10:38:30.242Z,101458.88
2022-10-11T10:41:00.918Z,101456.06
2022-10-11T10:43:31.677Z,101461.91
2022-10-11T10:46:21.649Z,101460.53
2022-10-11T10:51:47.525Z,101458.50
2022-10-11T10:54:25.777Z,101461.88
2022-10-11T10:56:55.848Z,101456.06
2022-10-11T10:59:44.808Z,101455.47
2022-10-11T11:02:38.985Z,101457.59
2022-10-11T11:05:11.605Z,101453.56
2022-10-11T11:07:43.666Z,101454.13
2022-10-11T11:10:18.876Z,101456.09
2022-10-11T11:12:49.403Z,101450.22
2022-10-11T11:15:27.161Z,101452.28
2022-10-11T11:18:09.635Z,101455.16
2022-10-11T11:20:46.406Z,101444.34
2022-10-11T11:23:23.500Z,101445.22
2022-10-11T11:26:01.684Z,101441.41
2022-10-11T11:28:43.250Z,101434.91
2022-10-11T11:31:17.725Z,101433.16
2022-10-11T11:33:52.433Z,101421.84
2022-10-11T11:36:26.243Z,101432.44
2022-10-11T11:38:57.952Z,101434.91
2022-10-11T11:41:31.615Z,101428.19
2022-10-11T11:44:03.353Z,101426.25
2022-10-11T11:46:34.995Z,101425.63
2022-10-11T11:49:09.620Z,101424.75
2022-10-11T11:51:43.729Z,101427.81
2022-10-11T11:54:21.234Z,101424.28
2022-10-11T11:56:57.607Z,101425.69
2022-10-11T11:59:29.593Z,101419.91
2022-10-11T12:02:04.451Z,101416.00
2022-10-11T12:04:35.287Z,101406.38
2022-10-11T12:07:16.441Z,101420.50
2022-10-11T12:09:50.492Z,101410.59
2022-10-11T12:12:34.038Z,101410.09
2022-10-11T12:15:07.146Z,101404.06
2022-10-11T12:17:36.650Z,101408.28
2022-10-11T12:20:24.058Z,101407.56
2022-10-11T12:23:00.166Z,101398.91
2022-10-11T12:25:43.602Z,101399.16
2022-10-11T12:28:43.279Z,101393.25
2022-10-11T12:31:23.986Z,101388.69
2022-10-11T12:33:55.925Z,101390.50
2022-10-11T12:36:37.338Z,101386.97
2022-10-11T12:39:36.873Z,101388.63
2022-10-11T12:42:09.690Z,101380.94
2022-10-11T12:44:39.200Z,101380.50
2022-10-11T12:47:19.944Z,101368.81
2022-10-11T12:49:54.068Z,101367.28
2022-10-11T12:52:29.963Z,101371.47
2022-10-11T12:55:29.272Z,101368.75
2022-10-11T12:58:21.549Z,101365.50
2022-10-11T13:01:12.985Z,101362.41
2022-10-11T13:03:45.808Z,101359.00
2022-10-11T13:06:18.025Z,101356.13
2022-10-11T13:08:50.284Z,101355.97
2022-10-11T13:11:21.804Z,101355.31
2022-10-11T13:13:56.283Z,101348.94
2022-10-11T13:16:27.560Z,101353.22
2022-10-11T13:19:01.120Z,101350.09
2022-10-11T13:21:34.649Z,101349.72
2022-10-11T13:24:05.231Z,101351.28
2022-10-11T13:26:34.811Z,101350.09
2022-10-11T13:29:04.309Z,101340.53
2022-10-11T13:31:33.988Z,101344.06
2022-10-11T13:34:06.067Z,101347.22
2022-10-11T13:36:35.560Z,101335.25
2022-10-11T13:39:05.266Z,101336.41
2022-10-11T13:41:35.194Z,101340.91
2022-10-11T13:44:04.654Z,101332.59
2022-10-11T13:46:34.112Z,101339.03
2022-10-11T13:49:07.173Z,101332.88
2022-10-11T13:51:37.326Z,101333.84
2022-10-11T13:54:10.569Z,101335.94
2022-10-11T13:56:45.705Z,101326.59
2022-10-11T13:59:15.303Z,101329.06
2022-10-11T14:01:47.219Z,101318.38
2022-10-11T14:04:19.860Z,101316.75
2022-10-11T14:06:50.512Z,101316.84
2022-10-11T14:09:24.232Z,101321.69
2022-10-11T14:11:53.741Z,101322.59
2022-10-11T14:14:41.456Z,101322.00
2022-10-11T14:17:16.008Z,101323.19
2022-10-11T14:19:49.068Z,101320.66
2022-10-11T14:22:19.037Z,101314.47
2022-10-11T14:24:50.103Z,101309.19
2022-10-11T14:27:21.479Z,101316.53
2022-10-11T14:30:19.808Z,101309.25
2022-10-11T14:32:42.303Z,101304.09
2022-10-11T14:35:17.588Z,101313.50
2022-10-11T14:37:47.092Z,101299.59
2022-10-11T14:40:18.467Z,101305.91
2022-10-11T14:42:48.031Z,101311.44
2022-10-11T14:45:17.728Z,101307.84
2022-10-11T14:47:47.312Z,101309.25
2022-10-11T14:50:27.473Z,101302.38
2022-10-11T14:52:57.088Z,101308.97
2022-10-11T14:55:26.855Z,101311.56
2022-10-11T14:57:56.585Z,101314.34
2022-10-11T15:00:27.199Z,101315.06
2022-10-11T15:02:56.851Z,101311.31
2022-10-11T15:05:33.918Z,101309.72
2022-10-11T15:08:03.790Z,101309.53
2022-10-11T15:10:36.432Z,101302.75
2022-10-11T15:13:07.109Z,101295.06
2022-10-11T15:15:38.001Z,101294.59
2022-10-11T15:18:08.861Z,101299.28
2022-10-11T15:20:42.019Z,101302.28
2022-10-11T15:23:12.215Z,101293.56
2022-10-11T15:25:42.582Z,101293.78
2022-10-11T15:28:13.985Z,101296.34
2022-10-11T15:30:43.525Z,101294.34
2022-10-11T15:33:12.976Z,101298.19
2022-10-11T15:35:45.088Z,101293.53
2022-10-11T15:38:18.182Z,101296.56
2022-10-11T15:40:47.697Z,101296.19
2022-10-11T15:43:20.752Z,101295.59
2022-10-11T15:45:53.162Z,101288.50
2022-10-11T15:48:23.852Z,101284.84
2022-10-11T15:50:56.361Z,101287.19
2022-10-11T15:53:28.534Z,101290.34
2022-10-11T15:55:59.144Z,101284.25
2022-10-11T15:58:29.834Z,101286.00
2022-10-11T16:01:00.541Z,101287.25
2022-10-11T16:03:31.006Z,101286.47
2022-10-11T16:06:05.572Z,101291.56
2022-10-11T16:08:35.356Z,101289.59
2022-10-11T16:11:05.828Z,101295.94
2022-10-11T16:13:35.325Z,101298.09
2022-10-11T16:16:05.502Z,101299.81
2022-10-11T16:18:36.025Z,101299.75
2022-10-11T16:21:11.161Z,101303.56
2022-10-11T16:23:40.904Z,101299.53
2022-10-11T16:26:11.594Z,101300.06
2022-10-11T16:28:42.005Z,101297.03
2022-10-11T16:31:11.837Z,101305.59
2022-10-11T16:33:45.906Z,101303.88
2022-10-11T16:36:36.470Z,101304.59
2022-10-11T16:39:08.654Z,101306.16
2022-10-11T16:41:38.162Z,101305.28
2022-10-11T16:44:07.742Z,101303.91
2022-10-11T16:46:37.275Z,101308.09
2022-10-11T16:49:09.443Z,101301.13
2022-10-11T16:51:41.496Z,101306.56
2022-10-11T16:54:11.038Z,101303.53
2022-10-11T16:56:40.580Z,101297.19
2022-10-11T16:59:10.152Z,101306.72
2022-10-11T17:01:40.479Z,101312.31
2022-10-11T17:04:09.961Z,101312.75
2022-10-11T17:06:43.902Z,101311.75
2022-10-11T17:09:13.435Z,101308.28
2022-10-11T17:11:43.151Z,101308.94
2022-10-11T17:14:13.271Z,101312.84
2022-10-11T17:16:42.697Z,101311.19
2022-10-11T17:19:12.714Z,101313.88
2022-10-11T17:21:44.797Z,101310.00
2022-10-11T17:24:14.218Z,101320.66
2022-10-11T17:26:43.722Z,101322.09
2022-10-11T17:29:15.060Z,101330.41
2022-10-11T17:31:49.046Z,101320.81
2022-10-11T17:34:19.393Z,101329.06
2022-10-11T17:36:51.498Z,101330.22
2022-10-11T17:39:22.410Z,101336.78
2022-10-11T17:41:52.024Z,101333.94
2022-10-11T17:44:21.793Z,101335.13
2022-10-11T17:46:51.340Z,101341.13
2022-10-11T17:49:20.852Z,101339.09
2022-10-11T17:51:52.966Z,101342.78
2022-10-11T17:54:22.537Z,101338.63
2022-10-11T17:56:52.107Z,101335.56
2022-10-11T17:59:27.318Z,101343.75
2022-10-11T18:01:57.346Z,101341.47
2022-10-11T18:04:29.435Z,101346.41
2022-10-11T18:07:01.658Z,101340.63
2022-10-11T18:09:32.435Z,101345.34
2022-10-11T18:12:01.925Z,101341.44
2022-10-11T18:14:31.373Z,101346.56
2022-10-11T18:17:00.819Z,101345.31
2022-10-11T18:19:30.332Z,101348.41
2022-10-11T18:22:06.817Z,101350.88
2022-10-11T18:24:36.832Z,101344.53
2022-10-11T18:27:06.475Z,101347.75
2022-10-11T18:29:35.928Z,101350.63
2022-10-11T18:32:05.400Z,101352.44
2022-10-11T18:34:34.847Z,101352.22
2022-10-11T18:37:06.912Z,101353.03
2022-10-11T18:39:36.473Z,101341.28
2022-10-11T18:42:06.731Z,101353.94
2022-10-11T18:44:36.181Z,101355.09
2022-10-11T18:47:05.655Z,101346.28
2022-10-11T18:49:35.107Z,101341.34
2022-10-11T18:52:08.384Z,101338.88
2022-10-11T18:54:37.826Z,101341.75
2022-10-11T18:57:07.347Z,101339.44
2022-10-11T18:59:37.039Z,101336.53
2022-10-11T19:02:06.796Z,101338.16
2022-10-11T19:04:36.235Z,101344.03
2022-10-11T19:07:08.303Z,101339.34
2022-10-11T19:09:38.087Z,101341.97
2022-10-11T19:12:07.828Z,101339.50
2022-10-11T19:14:37.328Z,101345.16
2022-10-11T19:17:06.770Z,101336.13
2022-10-11T19:19:36.247Z,101333.44
2022-10-11T19:22:08.293Z,101338.34
2022-10-11T19:24:37.753Z,101344.88
2022-10-11T19:27:07.361Z,101333.44
2022-10-11T19:29:37.130Z,101325.41
2022-10-11T19:32:06.797Z,101330.72
2022-10-11T19:34:36.269Z,101328.44
2022-10-11T19:37:13.177Z,101328.81
2022-10-11T19:39:43.211Z,101327.56
2022-10-11T19:42:12.630Z,101326.69
2022-10-11T19:44:42.237Z,101329.53
2022-10-11T19:47:11.775Z,101326.88
2022-10-11T19:49:41.253Z,101332.13
2022-10-11T19:52:13.841Z,101324.53
2022-10-11T19:54:43.286Z,101330.59
2022-10-11T19:57:12.774Z,101326.69
2022-10-11T19:59:42.717Z,101325.00
2022-10-11T20:02:12.622Z,101334.34
2022-10-11T20:04:57.498Z,101332.50
2022-10-11T20:07:29.792Z,101341.03
2022-10-11T20:09:59.409Z,101338.13
2022-10-11T20:12:29.638Z,101337.31
2022-10-11T20:14:59.209Z,101339.34
2022-10-11T20:17:48.195Z,101337.16
2022-10-11T20:20:17.757Z,101337.16
2022-10-11T20:22:49.811Z,101335.75
2022-10-11T20:25:19.395Z,101341.25
2022-10-11T20:27:48.895Z,101342.63
2022-10-11T20:30:18.441Z,101344.66
2022-10-11T20:32:48.036Z,101349.97
2022-10-11T20:35:17.736Z,101345.78
2022-10-11T20:37:49.783Z,101343.03
2022-10-11T20:40:19.518Z,101340.97
2022-10-11T20:42:49.065Z,101339.59
2022-10-11T20:45:18.700Z,101344.91
2022-10-11T20:47:48.269Z,101346.66
2022-10-11T20:50:22.831Z,101342.38
2022-10-11T20:52:55.153Z,101343.19
2022-10-11T20:55:24.899Z,101341.91
2022-10-11T20:57:56.268Z,101338.59
2022-10-11T21:00:25.904Z,101346.13
2022-10-11T21:02:55.417Z,101344.03
2022-10-11T21:05:24.917Z,101345.56
2022-10-11T21:07:56.949Z,101338.28
2022-10-11T21:10:26.415Z,101339.81
2022-10-11T21:12:55.919Z,101338.81
2022-10-11T21:15:26.083Z,101331.31
2022-10-11T21:17:55.584Z,101335.16
2022-10-11T21:20:25.045Z,101329.22
2022-10-11T21:22:57.261Z,101331.03
2022-10-11T21:25:26.803Z,101332.97
2022-10-11T21:27:56.404Z,101333.78
2022-10-11T21:30:25.897Z,101331.94
2022-10-11T21:32:57.397Z,101339.81
2022-10-11T21:35:26.847Z,101333.50
2022-10-11T21:37:59.648Z,101336.97
2022-10-11T21:40:29.327Z,101326.75
2022-10-11T21:42:58.969Z,101331.03
2022-10-11T21:45:28.460Z,101337.06
2022-10-11T21:47:57.888Z,101333.88
2022-10-11T21:50:27.336Z,101338.72
2022-10-11T21:52:59.359Z,101344.19
2022-10-11T21:55:29.621Z,101334.63
2022-10-11T21:57:59.058Z,101345.38
2022-10-11T22:00:28.780Z,101336.34
2022-10-11T22:02:58.623Z,101334.41
2022-10-11T22:05:28.174Z,101333.75
2022-10-11T22:08:02.982Z,101341.25
2022-10-11T22:10:34.808Z,101333.00
2022-10-11T22:13:04.274Z,101325.91
2022-10-11T22:15:36.030Z,101330.34
2022-10-11T22:18:05.506Z,101327.06
2022-10-11T22:20:35.688Z,101323.75
2022-10-11T22:23:08.168Z,101320.31
2022-10-11T22:25:37.715Z,101327.13
2022-10-11T22:28:07.389Z,101322.72
2022-10-11T22:30:36.888Z,101323.91
2022-10-11T22:33:06.558Z,101324.19
2022-10-11T22:35:38.320Z,101315.97
2022-10-11T22:38:10.377Z,101314.47
2022-10-11T22:40:42.212Z,101319.69
2022-10-11T22:43:11.674Z,101315.09
2022-10-11T22:45:41.099Z,101313.81
2022-10-11T22:48:10.601Z,101318.81
2022-10-11T22:50:40.321Z,101320.28
2022-10-11T22:53:12.444Z,101315.63
2022-10-11T22:55:41.933Z,101310.69
2022-10-11T22:58:11.561Z,101316.50
2022-10-11T23:00:41.257Z,101311.56
2022-10-11T23:03:10.761Z,101310.72
2022-10-11T23:05:40.216Z,101313.69
2022-10-11T23:08:12.534Z,101303.16
2022-10-11T23:10:42.123Z,101300.69
2022-10-11T23:13:11.656Z,101301.88
2022-10-11T23:15:42.697Z,101302.19
2022-10-11T23:18:12.509Z,101307.84
2022-10-11T23:20:42.064Z,101301.09
2022-10-11T23:23:14.101Z,101300.78
2022-10-11T23:25:43.775Z,101296.78
2022-10-11T23:28:13.268Z,101304.72
2022-10-11T23:30:42.974Z,101301.34
2022-10-11T23:33:12.436Z,101302.47
2022-10-11T23:35:41.886Z,101307.59
2022-10-11T23:38:13.884Z,101305.78
2022-10-11T23:40:43.325Z,101308.59
2022-10-11T23:43:12.840Z,101310.88
2022-10-11T23:45:42.359Z,101308.75
2022-10-11T23:48:11.849Z,101310.09
2022-10-11T23:50:41.302Z,101314.28
2022-10-11T23:53:10.782Z,101308.31
2022-10-11T23:55:42.816Z,101304.69
2022-10-11T23:58:12.349Z,101308.00
